createdAt,value
2018-11-12T00:00:25.662Z,0
2018-11-12T00:01:40.203Z,0
2018-11-12T00:02:55.050Z,0
2018-11-12T00:04:09.412Z,0
2018-11-12T00:05:24.321Z,0
2018-11-12T00:06:38.666Z,0
2018-11-12T00:07:53.095Z,0
2018-11-12T00:09:07.674Z,0
2018-11-12T00:10:22.549Z,0
2018-11-12T00:11:36.755Z,0
2018-11-12T00:12:51.201Z,0
2018-11-12T00:14:05.522Z,0
2018-11-12T00:15:20.647Z,0
2018-11-12T00:16:34.719Z,0
2018-11-12T00:18:04.061Z,0
2018-11-12T00:19:18.136Z,0
2018-11-12T00:20:32.459Z,0
2018-11-12T00:21:46.824Z,0
2018-11-12T00:23:01.587Z,0
2018-11-12T00:24:15.676Z,0
2018-11-12T00:25:30.365Z,0
2018-11-12T00:26:44.442Z,0
2018-11-12T00:27:59.077Z,0
2018-11-12T00:29:13.716Z,0
2018-11-12T00:30:28.605Z,0
2018-11-12T00:31:42.670Z,0
2018-11-12T00:32:57.545Z,0
2018-11-12T00:34:12.071Z,0
2018-11-12T00:35:26.911Z,0
2018-11-12T00:36:40.970Z,0
2018-11-12T00:37:55.755Z,0
2018-11-12T00:39:10.099Z,0
2018-11-12T00:40:24.983Z,0
2018-11-12T00:41:39.608Z,0
2018-11-12T00:42:53.967Z,0
2018-11-12T00:44:08.560Z,0
2018-11-12T00:45:23.177Z,0
2018-11-12T00:46:38.044Z,0
2018-11-12T00:47:52.791Z,0
2018-11-12T00:49:07.168Z,0
2018-11-12T00:50:21.778Z,0
2018-11-12T00:51:36.577Z,0
2018-11-12T00:52:51.180Z,0
2018-11-12T00:54:06.932Z,0
2018-11-12T00:55:20.975Z,0
2018-11-12T00:56:35.030Z,0
2018-11-12T00:57:49.860Z,0
2018-11-12T00:59:04.304Z,0
2018-11-12T01:00:19.460Z,0
2018-11-12T01:01:53.236Z,0
2018-11-12T01:03:07.834Z,0
2018-11-12T01:04:22.349Z,0
2018-11-12T01:05:37.238Z,0
2018-11-12T01:06:51.429Z,0
2018-11-12T01:08:06.044Z,0
2018-11-12T01:09:20.761Z,0
2018-11-12T01:10:35.871Z,0
2018-11-12T01:11:51.071Z,0
2018-11-12T01:13:05.386Z,0
2018-11-12T01:14:20.521Z,0
2018-11-12T01:15:35.379Z,0
2018-11-12T01:16:49.430Z,0
2018-11-12T01:18:04.347Z,0
2018-11-12T01:19:18.961Z,0
2018-11-12T01:20:33.533Z,0
2018-11-12T01:21:47.856Z,0
2018-11-12T01:23:02.198Z,0
2018-11-12T01:24:31.428Z,0
2018-11-12T01:25:46.291Z,0
2018-11-12T01:27:00.354Z,0
2018-11-12T01:28:14.697Z,0
2018-11-12T01:29:30.003Z,0
2018-11-12T01:30:43.842Z,0
2018-11-12T01:31:58.444Z,0
2018-11-12T01:33:13.287Z,0
2018-11-12T01:34:28.697Z,0
2018-11-12T01:35:43.042Z,0
2018-11-12T01:36:57.895Z,0
2018-11-12T01:38:12.218Z,0
2018-11-12T01:39:27.450Z,0
2018-11-12T01:40:42.704Z,0
2018-11-12T01:41:57.255Z,0
2018-11-12T01:43:11.068Z,0
2018-11-12T01:44:25.658Z,0
2018-11-12T01:45:40.226Z,0
2018-11-12T01:46:55.434Z,0
2018-11-12T01:48:10.003Z,0
2018-11-12T01:49:24.685Z,0
2018-11-12T01:50:39.833Z,0
2018-11-12T01:51:54.413Z,0
2018-11-12T01:53:09.282Z,0
2018-11-12T01:54:23.871Z,0
2018-11-12T01:55:38.025Z,0
2018-11-12T01:56:52.369Z,0
2018-11-12T01:58:06.422Z,0
2018-11-12T01:59:21.668Z,0
2018-11-12T02:00:36.076Z,0
2018-11-12T02:01:50.990Z,0
2018-11-12T02:03:05.707Z,0
2018-11-12T02:04:20.580Z,0
2018-11-12T02:05:34.789Z,0
2018-11-12T02:06:49.350Z,0
2018-11-12T02:08:04.225Z,0
2018-11-12T02:09:19.272Z,0
2018-11-12T02:10:34.233Z,0
2018-11-12T02:11:48.592Z,0
2018-11-12T02:13:02.663Z,0
2018-11-12T02:14:17.528Z,0
2018-11-12T02:15:32.677Z,0
2018-11-12T02:16:47.015Z,0
2018-11-12T02:18:01.446Z,0
2018-11-12T02:19:15.747Z,0
2018-11-12T02:20:29.904Z,0
2018-11-12T02:21:44.957Z,0
2018-11-12T02:22:59.905Z,0
2018-11-12T02:24:15.004Z,0
2018-11-12T02:25:29.946Z,0
2018-11-12T02:26:44.545Z,0
2018-11-12T02:27:59.182Z,0
2018-11-12T02:29:13.776Z,0
2018-11-12T02:30:29.309Z,0
2018-11-12T02:31:43.836Z,0
2018-11-12T02:32:58.481Z,0
2018-11-12T02:34:13.454Z,0
2018-11-12T02:35:27.247Z,0
2018-11-12T02:36:42.249Z,0
2018-11-12T02:37:56.511Z,0
2018-11-12T02:39:11.404Z,0
2018-11-12T02:40:26.055Z,0
2018-11-12T02:41:40.380Z,0
2018-11-12T02:42:55.187Z,0
2018-11-12T02:44:09.717Z,0
2018-11-12T02:45:24.884Z,0
2018-11-12T02:46:39.463Z,0
2018-11-12T02:47:54.188Z,0
2018-11-12T02:49:09.152Z,0
2018-11-12T02:50:23.746Z,0
2018-11-12T02:51:38.849Z,0
2018-11-12T02:52:53.174Z,0
2018-11-12T02:54:07.732Z,0
2018-11-12T02:55:22.676Z,0
2018-11-12T02:56:37.530Z,0
2018-11-12T02:58:17.818Z,0
2018-11-12T02:59:32.319Z,0
2018-11-12T03:00:46.427Z,0
2018-11-12T03:02:00.744Z,0
2018-11-12T03:03:15.659Z,0
2018-11-12T03:04:30.265Z,0
2018-11-12T03:05:45.267Z,0
2018-11-12T03:07:00.402Z,0
2018-11-12T03:08:15.040Z,0
2018-11-12T03:09:29.954Z,0
2018-11-12T03:10:44.536Z,0
2018-11-12T03:11:58.922Z,0
2018-11-12T03:13:13.814Z,0
2018-11-12T03:14:27.883Z,0
2018-11-12T03:15:42.985Z,0
2018-11-12T03:16:57.219Z,0
2018-11-12T03:18:11.747Z,0
2018-11-12T03:19:26.087Z,0
2018-11-12T03:20:40.957Z,0
2018-11-12T03:21:55.539Z,0
2018-11-12T03:23:10.117Z,0
2018-11-12T03:24:25.162Z,0
2018-11-12T03:25:39.763Z,0
2018-11-12T03:26:53.848Z,0
2018-11-12T03:28:08.444Z,0
2018-11-12T03:29:22.845Z,0
2018-11-12T03:30:36.661Z,0
2018-11-12T03:31:51.028Z,0
2018-11-12T03:33:05.374Z,0
2018-11-12T03:34:20.063Z,0
2018-11-12T03:35:34.928Z,0
2018-11-12T03:36:49.569Z,0
2018-11-12T03:38:03.872Z,0
2018-11-12T03:39:18.507Z,0
2018-11-12T03:40:33.111Z,0
2018-11-12T03:41:47.714Z,0
2018-11-12T03:43:02.631Z,0
2018-11-12T03:44:17.292Z,0
2018-11-12T03:45:31.123Z,0
2018-11-12T03:46:45.324Z,0
2018-11-12T03:47:59.900Z,0
2018-11-12T03:49:14.599Z,0
2018-11-12T03:50:29.732Z,0
2018-11-12T03:51:44.597Z,0
2018-11-12T03:52:59.206Z,0
2018-11-12T03:54:14.068Z,0
2018-11-12T03:55:29.051Z,0
2018-11-12T03:56:43.370Z,0
2018-11-12T03:57:58.251Z,0
2018-11-12T03:59:12.845Z,0
2018-11-12T04:00:28.283Z,0
2018-11-12T04:01:43.403Z,0
2018-11-12T04:02:58.273Z,0
2018-11-12T04:04:13.160Z,0
2018-11-12T04:05:27.845Z,0
2018-11-12T04:06:42.502Z,0
2018-11-12T04:07:56.906Z,0
2018-11-12T04:09:11.502Z,0
2018-11-12T04:10:26.380Z,0
2018-11-12T04:11:41.219Z,0
2018-11-12T04:12:56.080Z,0
2018-11-12T04:14:10.415Z,0
2018-11-12T04:15:25.128Z,0
2018-11-12T04:16:39.227Z,0
2018-11-12T04:17:53.035Z,0
2018-11-12T04:19:07.877Z,0
2018-11-12T04:20:22.027Z,0
2018-11-12T04:21:36.612Z,0
2018-11-12T04:22:51.172Z,0
2018-11-12T04:24:05.240Z,0
2018-11-12T04:25:19.680Z,0
2018-11-12T04:26:34.552Z,0
2018-11-12T04:27:49.808Z,0
2018-11-12T04:29:04.744Z,0
2018-11-12T04:30:18.815Z,0
2018-11-12T04:31:33.745Z,0
2018-11-12T04:32:48.363Z,0
2018-11-12T04:34:03.266Z,0
2018-11-12T04:35:17.884Z,0
2018-11-12T04:36:32.528Z,0
2018-11-12T04:37:47.634Z,0
2018-11-12T04:39:02.381Z,0
2018-11-12T04:40:17.239Z,0
2018-11-12T04:41:31.066Z,0
2018-11-12T04:42:45.669Z,0
2018-11-12T04:44:00.294Z,0
2018-11-12T04:45:14.921Z,0
2018-11-12T04:46:29.655Z,0
2018-11-12T04:47:44.300Z,0
2018-11-12T04:48:58.664Z,0
2018-11-12T04:50:12.736Z,0
2018-11-12T04:51:27.251Z,0
2018-11-12T04:52:41.871Z,0
2018-11-12T04:53:56.864Z,0
2018-11-12T04:55:12.097Z,0
2018-11-12T04:56:26.593Z,0
2018-11-12T04:57:40.992Z,0
2018-11-12T04:58:55.577Z,0
2018-11-12T05:00:09.673Z,0
2018-11-12T05:01:24.523Z,0
2018-11-12T05:02:39.434Z,0
2018-11-12T05:03:53.482Z,0
2018-11-12T05:05:07.883Z,0
2018-11-12T05:06:22.465Z,0
2018-11-12T05:07:37.682Z,0
2018-11-12T05:08:52.786Z,0
2018-11-12T05:10:07.367Z,0
2018-11-12T05:11:21.994Z,0
2018-11-12T05:12:36.704Z,0
2018-11-12T05:13:51.564Z,0
2018-11-12T05:15:06.214Z,0
2018-11-12T05:16:20.412Z,0
2018-11-12T05:17:34.057Z,0
2018-11-12T05:18:48.667Z,0
2018-11-12T05:20:03.314Z,0
2018-11-12T05:21:17.728Z,0
2018-11-12T05:22:32.619Z,0
2018-11-12T05:23:47.219Z,0
2018-11-12T05:25:01.550Z,0
2018-11-12T05:26:16.234Z,0
2018-11-12T05:27:30.918Z,0
2018-11-12T05:29:00.218Z,0
2018-11-12T05:30:14.840Z,0
2018-11-12T05:31:29.731Z,0
2018-11-12T05:32:44.640Z,0
2018-11-12T05:33:59.481Z,0
2018-11-12T05:35:14.614Z,0
2018-11-12T05:36:29.637Z,0
2018-11-12T05:37:44.870Z,0
2018-11-12T05:38:59.652Z,0
2018-11-12T05:40:14.509Z,0
2018-11-12T05:41:29.132Z,0
2018-11-12T05:42:43.883Z,0
2018-11-12T05:43:58.731Z,0
2018-11-12T05:45:13.676Z,0
2018-11-12T05:46:28.267Z,0
2018-11-12T05:47:43.329Z,0
2018-11-12T05:48:58.183Z,0
2018-11-12T05:50:12.785Z,0
2018-11-12T05:51:27.063Z,0
2018-11-12T05:52:41.586Z,0
2018-11-12T05:54:15.111Z,0
2018-11-12T05:55:29.526Z,0
2018-11-12T05:56:44.167Z,0
2018-11-12T05:57:59.155Z,0
2018-11-12T05:59:14.582Z,0
2018-11-12T06:00:29.047Z,0
2018-11-12T06:01:43.626Z,0
2018-11-12T06:02:58.554Z,0
2018-11-12T06:04:13.446Z,0
2018-11-12T06:05:28.042Z,0
2018-11-12T06:06:42.090Z,0
2018-11-12T06:07:57.345Z,0
2018-11-12T06:09:11.993Z,0
2018-11-12T06:10:27.117Z,0
2018-11-12T06:11:42.245Z,0
2018-11-12T06:12:56.570Z,0
2018-11-12T06:14:11.188Z,0
2018-11-12T06:15:25.806Z,0
2018-11-12T06:16:40.179Z,0
2018-11-12T06:17:55.169Z,0
2018-11-12T06:19:09.529Z,0
2018-11-12T06:20:24.129Z,0
2018-11-12T06:21:38.468Z,0
2018-11-12T06:22:52.935Z,0
2018-11-12T06:24:07.667Z,0
2018-11-12T06:25:22.274Z,0
2018-11-12T06:26:36.862Z,0
2018-11-12T06:27:51.744Z,0
2018-11-12T06:29:05.983Z,0
2018-11-12T06:30:20.886Z,0
2018-11-12T06:31:35.694Z,0
2018-11-12T06:32:50.824Z,0
2018-11-12T06:34:05.827Z,0
2018-11-12T06:35:20.546Z,0
2018-11-12T06:36:35.287Z,0
2018-11-12T06:37:49.466Z,0
2018-11-12T06:39:04.584Z,0
2018-11-12T06:40:19.368Z,0
2018-11-12T06:41:33.861Z,0
2018-11-12T06:42:49.796Z,0
2018-11-12T06:44:19.216Z,0
2018-11-12T06:45:33.959Z,0
2018-11-12T06:46:49.088Z,0
2018-11-12T06:48:04.277Z,0
2018-11-12T06:49:18.922Z,0
2018-11-12T06:50:33.820Z,0
2018-11-12T06:51:48.446Z,0
2018-11-12T06:53:03.910Z,5
2018-11-12T06:54:18.860Z,5
2018-11-12T06:55:33.842Z,5
2018-11-12T06:56:48.214Z,5
2018-11-12T06:58:02.558Z,5
2018-11-12T06:59:17.199Z,5
2018-11-12T07:00:31.932Z,5
2018-11-12T07:01:46.568Z,5
2018-11-12T07:03:01.005Z,5
2018-11-12T07:04:15.595Z,5
2018-11-12T07:05:30.672Z,5
2018-11-12T07:06:45.391Z,5
2018-11-12T07:07:59.766Z,5
2018-11-12T07:09:14.271Z,5
2018-11-12T07:10:28.478Z,5
2018-11-12T07:11:43.358Z,5
2018-11-12T07:12:57.701Z,5
2018-11-12T07:14:12.472Z,5
2018-11-12T07:15:27.457Z,10
2018-11-12T07:16:42.167Z,10
2018-11-12T07:17:57.091Z,10
2018-11-12T07:19:11.441Z,10
2018-11-12T07:20:25.774Z,10
2018-11-12T07:21:40.665Z,10
2018-11-12T07:22:55.581Z,10
2018-11-12T07:24:10.219Z,10
2018-11-12T07:25:25.460Z,10
2018-11-12T07:26:40.927Z,10
2018-11-12T07:27:55.232Z,15
2018-11-12T07:29:10.087Z,15
2018-11-12T07:30:24.207Z,10
2018-11-12T07:31:38.672Z,10
2018-11-12T07:32:53.393Z,15
2018-11-12T07:34:07.729Z,15
2018-11-12T07:35:22.875Z,15
2018-11-12T07:36:37.305Z,15
2018-11-12T07:37:52.167Z,10
2018-11-12T07:39:07.437Z,15
2018-11-12T07:40:22.627Z,15
2018-11-12T07:41:37.142Z,15
2018-11-12T07:42:52.300Z,15
2018-11-12T07:44:06.390Z,15
2018-11-12T07:45:20.952Z,15
2018-11-12T07:46:36.185Z,15
2018-11-12T07:47:51.072Z,15
2018-11-12T07:49:05.388Z,20
2018-11-12T07:50:20.021Z,15
2018-11-12T07:51:35.887Z,20
2018-11-12T07:52:50.246Z,20
2018-11-12T07:54:04.417Z,15
2018-11-12T07:55:19.039Z,20
2018-11-12T07:56:34.540Z,20
2018-11-12T07:57:49.564Z,20
2018-11-12T07:59:04.561Z,20
2018-11-12T08:00:18.899Z,20
2018-11-12T08:01:33.485Z,20
2018-11-12T08:02:47.664Z,20
2018-11-12T08:04:17.296Z,25
2018-11-12T08:05:32.191Z,20
2018-11-12T08:06:47.319Z,25
2018-11-12T08:08:01.977Z,20
2018-11-12T08:09:17.222Z,25
2018-11-12T08:10:32.076Z,20
2018-11-12T08:11:46.837Z,20
2018-11-12T08:13:01.472Z,25
2018-11-12T08:14:16.165Z,25
2018-11-12T08:15:30.896Z,25
2018-11-12T08:16:45.390Z,25
2018-11-12T08:18:00.147Z,25
2018-11-12T08:19:14.726Z,25
2018-11-12T08:20:29.845Z,25
2018-11-12T08:21:45.135Z,25
2018-11-12T08:22:59.468Z,25
2018-11-12T08:24:14.711Z,30
2018-11-12T08:25:29.823Z,35
2018-11-12T08:26:44.712Z,30
2018-11-12T08:27:59.043Z,30
2018-11-12T08:29:12.922Z,30
2018-11-12T08:30:28.080Z,30
2018-11-12T08:31:42.639Z,25
2018-11-12T08:32:57.841Z,30
2018-11-12T08:34:12.758Z,25
2018-11-12T08:35:26.857Z,30
2018-11-12T08:36:42.305Z,30
2018-11-12T08:37:57.016Z,30
2018-11-12T08:39:12.180Z,25
2018-11-12T08:40:27.514Z,20
2018-11-12T08:41:42.966Z,20
2018-11-12T08:42:57.480Z,20
2018-11-12T08:44:12.128Z,25
2018-11-12T08:45:27.015Z,25
2018-11-12T08:46:41.637Z,20
2018-11-12T08:47:56.533Z,20
2018-11-12T08:49:12.207Z,20
2018-11-12T08:50:27.366Z,20
2018-11-12T08:51:42.333Z,20
2018-11-12T08:52:56.978Z,15
2018-11-12T08:54:11.849Z,15
2018-11-12T08:55:27.193Z,15
2018-11-12T08:56:41.207Z,20
2018-11-12T08:57:56.618Z,20
2018-11-12T08:59:11.420Z,20
2018-11-12T09:00:25.949Z,20
2018-11-12T09:01:40.586Z,20
2018-11-12T09:02:55.400Z,25
2018-11-12T09:04:09.428Z,25
2018-11-12T09:05:23.962Z,25
2018-11-12T09:06:38.325Z,30
2018-11-12T09:07:52.950Z,30
2018-11-12T09:09:07.050Z,25
2018-11-12T09:10:22.035Z,25
2018-11-12T09:11:36.110Z,25
2018-11-12T09:12:50.726Z,25
2018-11-12T09:14:05.578Z,25
2018-11-12T09:15:20.692Z,20
2018-11-12T09:16:34.788Z,20
2018-11-12T09:17:49.674Z,20
2018-11-12T09:19:04.002Z,20
2018-11-12T09:20:18.449Z,20
2018-11-12T09:21:33.600Z,20
2018-11-12T09:22:47.941Z,20
2018-11-12T09:24:02.842Z,25
2018-11-12T09:25:17.438Z,25
2018-11-12T09:26:32.165Z,30
2018-11-12T09:27:46.766Z,25
2018-11-12T09:29:21.190Z,30
2018-11-12T09:30:35.954Z,30
2018-11-12T09:31:51.090Z,30
2018-11-12T09:33:06.271Z,30
2018-11-12T09:34:21.147Z,35
2018-11-12T09:35:35.728Z,40
2018-11-12T09:36:51.488Z,35
2018-11-12T09:38:06.949Z,45
2018-11-12T09:39:22.301Z,45
2018-11-12T09:40:37.735Z,45
2018-11-12T09:41:52.292Z,45
2018-11-12T09:43:06.580Z,50
2018-11-12T09:44:21.086Z,55
2018-11-12T09:45:35.992Z,60
2018-11-12T09:46:50.612Z,55
2018-11-12T09:48:06.622Z,50
2018-11-12T09:49:22.109Z,50
2018-11-12T09:50:36.829Z,45
2018-11-12T09:51:51.503Z,45
2018-11-12T09:53:06.391Z,45
2018-11-12T09:54:21.603Z,40
2018-11-12T09:55:36.855Z,45
2018-11-12T09:56:51.947Z,50
2018-11-12T09:58:06.870Z,50
2018-11-12T09:59:22.188Z,50
2018-11-12T10:00:38.497Z,50
2018-11-12T10:01:57.621Z,50
2018-11-12T10:03:17.994Z,55
2018-11-12T10:04:39.078Z,50
2018-11-12T10:06:10.850Z,50
2018-11-12T10:07:44.119Z,40
2018-11-12T10:09:16.024Z,40
2018-11-12T10:10:59.199Z,35
2018-11-12T10:12:36.547Z,35
2018-11-12T10:14:12.867Z,35
2018-11-12T10:15:55.975Z,35
2018-11-12T10:17:27.192Z,35
2018-11-12T10:18:48.344Z,35
2018-11-12T10:20:03.255Z,30
2018-11-12T10:21:18.197Z,30
2018-11-12T10:22:32.412Z,25
2018-11-12T10:23:46.815Z,30
2018-11-12T10:25:01.562Z,35
2018-11-12T10:26:16.438Z,30
2018-11-12T10:27:31.362Z,35
2018-11-12T10:28:45.705Z,35
2018-11-12T10:30:00.719Z,40
2018-11-12T10:31:14.918Z,40
2018-11-12T10:32:29.230Z,40
2018-11-12T10:33:44.098Z,35
2018-11-12T10:34:58.809Z,40
2018-11-12T10:36:13.687Z,35
2018-11-12T10:37:28.877Z,35
2018-11-12T10:38:43.192Z,40
2018-11-12T10:39:57.612Z,35
2018-11-12T10:41:12.375Z,30
2018-11-12T10:42:27.130Z,35
2018-11-12T10:43:41.742Z,30
2018-11-12T10:44:56.643Z,30
2018-11-12T10:46:10.736Z,30
2018-11-12T10:47:25.356Z,30
2018-11-12T10:48:40.477Z,30
2018-11-12T10:49:55.491Z,30
2018-11-12T10:51:19.025Z,25
2018-11-12T10:52:33.406Z,30
2018-11-12T10:53:55.690Z,30
2018-11-12T10:55:17.750Z,30
2018-11-12T10:56:33.071Z,35
2018-11-12T10:57:47.419Z,30
2018-11-12T10:59:02.284Z,25
2018-11-12T11:00:17.763Z,30
2018-11-12T11:01:31.928Z,30
2018-11-12T11:02:46.606Z,30
2018-11-12T11:04:01.726Z,30
2018-11-12T11:05:16.984Z,25
2018-11-12T11:06:31.628Z,25
2018-11-12T11:07:46.254Z,30
2018-11-12T11:09:01.592Z,30
2018-11-12T11:10:16.252Z,30
2018-11-12T11:11:30.889Z,30
2018-11-12T11:12:45.460Z,35
2018-11-12T11:13:59.948Z,40
2018-11-12T11:15:14.570Z,35
2018-11-12T11:16:29.643Z,40
2018-11-12T11:17:43.986Z,40
2018-11-12T11:18:58.342Z,40
2018-11-12T11:20:13.047Z,50
2018-11-12T11:21:28.399Z,50
2018-11-12T11:22:43.248Z,55
2018-11-12T11:23:57.069Z,45
2018-11-12T11:25:11.403Z,40
2018-11-12T11:26:26.366Z,35
2018-11-12T11:27:41.224Z,40
2018-11-12T11:28:55.551Z,40
2018-11-12T11:30:10.188Z,40
2018-11-12T11:31:24.896Z,35
2018-11-12T11:32:40.015Z,30
2018-11-12T11:33:54.640Z,30
2018-11-12T11:35:09.002Z,30
2018-11-12T11:36:23.558Z,30
2018-11-12T11:37:38.172Z,30
2018-11-12T11:38:53.349Z,30
2018-11-12T11:40:08.400Z,30
2018-11-12T11:41:22.244Z,30
2018-11-12T11:42:36.961Z,30
2018-11-12T11:43:51.861Z,35
2018-11-12T11:45:06.378Z,40
2018-11-12T11:46:21.120Z,40
2018-11-12T11:47:36.526Z,40
2018-11-12T11:48:52.140Z,40
2018-11-12T11:50:07.742Z,35
2018-11-12T11:51:22.937Z,30
2018-11-12T11:52:37.629Z,35
2018-11-12T11:53:51.465Z,35
2018-11-12T11:55:31.513Z,35
2018-11-12T11:56:45.664Z,35
2018-11-12T11:58:01.268Z,40
2018-11-12T11:59:16.322Z,65
2018-11-12T12:00:30.956Z,110
2018-11-12T12:01:56.451Z,90
2018-11-12T12:03:11.852Z,80
2018-11-12T12:04:26.464Z,75
2018-11-12T12:05:40.905Z,60
2018-11-12T12:06:55.800Z,45
2018-11-12T12:08:10.789Z,55
2018-11-12T12:09:25.670Z,55
2018-11-12T12:10:40.914Z,50
2018-11-12T12:11:55.011Z,45
2018-11-12T12:13:09.875Z,35
2018-11-12T12:14:24.765Z,35
2018-11-12T12:15:39.393Z,35
2018-11-12T12:16:54.309Z,35
2018-11-12T12:18:08.927Z,50
2018-11-12T12:19:24.130Z,60
2018-11-12T12:20:39.007Z,50
2018-11-12T12:21:53.143Z,50
2018-11-12T12:23:08.412Z,50
2018-11-12T12:24:22.936Z,45
2018-11-12T12:25:37.918Z,45
2018-11-12T12:26:52.431Z,50
2018-11-12T12:28:07.416Z,60
2018-11-12T12:29:21.742Z,75
2018-11-12T12:30:36.585Z,75
2018-11-12T12:31:51.203Z,80
2018-11-12T12:33:05.579Z,85
2018-11-12T12:34:20.294Z,85
2018-11-12T12:35:35.146Z,85
2018-11-12T12:36:50.765Z,90
2018-11-12T12:38:05.387Z,85
2018-11-12T12:39:20.711Z,85
2018-11-12T12:40:35.348Z,80
2018-11-12T12:41:50.496Z,75
2018-11-12T12:43:05.509Z,80
2018-11-12T12:44:20.379Z,80
2018-11-12T12:45:35.362Z,80
2018-11-12T12:46:50.495Z,85
2018-11-12T12:48:05.347Z,80
2018-11-12T12:49:20.420Z,80
2018-11-12T12:50:34.897Z,80
2018-11-12T12:51:49.452Z,85
2018-11-12T12:53:04.077Z,85
2018-11-12T12:54:18.839Z,80
2018-11-12T12:55:33.761Z,80
2018-11-12T12:56:48.831Z,80
2018-11-12T12:58:03.515Z,80
2018-11-12T12:59:18.595Z,85
2018-11-12T13:00:33.275Z,85
2018-11-12T13:01:48.265Z,80
2018-11-12T13:03:03.893Z,80
2018-11-12T13:04:19.011Z,75
2018-11-12T13:05:33.131Z,75
2018-11-12T13:06:49.019Z,75
2018-11-12T13:08:03.398Z,80
2018-11-12T13:09:18.183Z,90
2018-11-12T13:10:33.123Z,80
2018-11-12T13:11:48.366Z,75
2018-11-12T13:13:03.012Z,80
2018-11-12T13:14:19.328Z,75
2018-11-12T13:15:33.821Z,80
2018-11-12T13:16:49.016Z,80
2018-11-12T13:18:03.425Z,75
2018-11-12T13:19:18.357Z,75
2018-11-12T13:20:33.187Z,75
2018-11-12T13:21:48.406Z,75
2018-11-12T13:23:03.838Z,70
2018-11-12T13:24:18.403Z,65
2018-11-12T13:25:33.007Z,75
2018-11-12T13:26:47.916Z,65
2018-11-12T13:28:03.828Z,70
2018-11-12T13:29:18.464Z,80
2018-11-12T13:30:32.889Z,75
2018-11-12T13:31:47.828Z,85
2018-11-12T13:33:02.969Z,80
2018-11-12T13:34:18.169Z,80
2018-11-12T13:35:33.129Z,75
2018-11-12T13:36:48.638Z,75
2018-11-12T13:38:03.684Z,75
2018-11-12T13:39:18.213Z,75
2018-11-12T13:40:33.310Z,75
2018-11-12T13:41:47.495Z,75
2018-11-12T13:43:02.294Z,75
2018-11-12T13:44:16.636Z,75
2018-11-12T13:45:30.764Z,75
2018-11-12T13:46:45.816Z,75
2018-11-12T13:48:00.504Z,75
2018-11-12T13:49:15.137Z,75
2018-11-12T13:50:29.513Z,70
2018-11-12T13:51:43.921Z,70
2018-11-12T13:52:58.830Z,70
2018-11-12T13:54:13.613Z,65
2018-11-12T13:55:27.981Z,65
2018-11-12T13:56:42.309Z,65
2018-11-12T13:57:56.963Z,65
2018-11-12T13:59:11.330Z,65
2018-11-12T14:00:25.949Z,65
2018-11-12T14:01:40.889Z,65
2018-11-12T14:02:55.530Z,60
2018-11-12T14:04:10.253Z,60
2018-11-12T14:05:25.143Z,60
2018-11-12T14:06:39.635Z,60
2018-11-12T14:07:53.848Z,60
2018-11-12T14:09:08.862Z,60
2018-11-12T14:10:23.476Z,60
2018-11-12T14:11:38.394Z,60
2018-11-12T14:12:53.560Z,60
2018-11-12T14:14:08.878Z,60
2018-11-12T14:15:23.848Z,60
2018-11-12T14:16:38.450Z,60
2018-11-12T14:17:52.905Z,55
2018-11-12T14:19:07.286Z,55
2018-11-12T14:20:22.345Z,55
2018-11-12T14:21:38.566Z,55
2018-11-12T14:22:54.068Z,50
2018-11-12T14:24:09.612Z,55
2018-11-12T14:25:23.959Z,55
2018-11-12T14:26:38.825Z,55
2018-11-12T14:27:54.526Z,50
2018-11-12T14:29:09.477Z,50
2018-11-12T14:30:23.993Z,50
2018-11-12T14:31:38.599Z,50
2018-11-12T14:32:53.500Z,50
2018-11-12T14:34:08.277Z,50
2018-11-12T14:35:22.428Z,50
2018-11-12T14:36:37.460Z,50
2018-11-12T14:37:51.580Z,50
2018-11-12T14:39:06.585Z,50
2018-11-12T14:40:21.462Z,50
2018-11-12T14:41:36.235Z,45
2018-11-12T14:42:51.080Z,45
2018-11-12T14:44:05.690Z,45
2018-11-12T14:45:21.239Z,45
2018-11-12T14:46:35.939Z,45
2018-11-12T14:47:50.044Z,40
2018-11-12T14:49:04.884Z,40
2018-11-12T14:50:19.502Z,40
2018-11-12T14:51:33.899Z,35
2018-11-12T14:52:48.267Z,35
2018-11-12T14:54:02.866Z,35
2018-11-12T14:55:19.644Z,35
2018-11-12T14:56:34.027Z,35
2018-11-12T14:57:48.384Z,30
2018-11-12T14:59:02.467Z,30
2018-11-12T15:00:17.611Z,30
2018-11-12T15:01:32.346Z,30
2018-11-12T15:02:46.766Z,25
2018-11-12T15:04:01.369Z,25
2018-11-12T15:05:15.940Z,25
2018-11-12T15:06:31.072Z,25
2018-11-12T15:07:45.984Z,25
2018-11-12T15:09:01.068Z,20
2018-11-12T15:10:16.419Z,20
2018-11-12T15:11:30.506Z,20
2018-11-12T15:12:45.474Z,20
2018-11-12T15:14:00.598Z,20
2018-11-12T15:15:15.681Z,20
2018-11-12T15:16:30.033Z,20
2018-11-12T15:17:45.171Z,20
2018-11-12T15:18:59.261Z,15
2018-11-12T15:20:14.351Z,15
2018-11-12T15:21:28.979Z,15
2018-11-12T15:22:44.151Z,15
2018-11-12T15:23:58.633Z,15
2018-11-12T15:25:12.757Z,10
2018-11-12T15:26:27.629Z,10
2018-11-12T15:27:42.159Z,10
2018-11-12T15:28:56.775Z,10
2018-11-12T15:30:10.751Z,5
2018-11-12T15:31:26.328Z,5
2018-11-12T15:32:56.107Z,5
2018-11-12T15:34:10.970Z,5
2018-11-12T15:35:25.357Z,5
2018-11-12T15:36:40.781Z,5
2018-11-12T15:37:56.225Z,5
2018-11-12T15:39:10.782Z,5
2018-11-12T15:40:25.394Z,0
2018-11-12T15:41:39.775Z,0
2018-11-12T15:42:54.419Z,0
2018-11-12T15:44:09.605Z,0
2018-11-12T15:45:23.982Z,0
2018-11-12T15:46:38.866Z,0
2018-11-12T15:47:54.426Z,0
2018-11-12T15:49:09.348Z,0
2018-11-12T15:50:23.193Z,0
2018-11-12T15:51:37.805Z,0
2018-11-12T15:52:52.564Z,0
2018-11-12T15:54:07.470Z,0
2018-11-12T15:55:22.692Z,0
2018-11-12T15:56:37.310Z,0
2018-11-12T15:57:52.748Z,0
2018-11-12T15:59:07.902Z,0
2018-11-12T16:00:22.231Z,0
2018-11-12T16:01:36.623Z,0
2018-11-12T16:02:51.617Z,0
2018-11-12T16:04:06.496Z,0
2018-11-12T16:05:20.865Z,0
2018-11-12T16:06:35.756Z,0
2018-11-12T16:07:49.997Z,0
2018-11-12T16:09:04.868Z,0
2018-11-12T16:10:19.991Z,0
2018-11-12T16:11:34.700Z,0
2018-11-12T16:12:49.657Z,0
2018-11-12T16:14:04.495Z,0
2018-11-12T16:15:19.380Z,0
2018-11-12T16:16:33.736Z,0
2018-11-12T16:17:48.110Z,0
2018-11-12T16:19:04.057Z,0
2018-11-12T16:20:21.977Z,0
2018-11-12T16:21:37.119Z,0
2018-11-12T16:22:51.755Z,0
2018-11-12T16:24:06.903Z,0
2018-11-12T16:25:21.284Z,0
2018-11-12T16:26:36.321Z,0
2018-11-12T16:27:51.303Z,0
2018-11-12T16:29:05.399Z,0
2018-11-12T16:30:19.769Z,0
2018-11-12T16:31:34.653Z,0
2018-11-12T16:32:49.596Z,0
2018-11-12T16:34:04.403Z,0
2018-11-12T16:35:19.022Z,0
2018-11-12T16:36:33.553Z,0
2018-11-12T16:37:48.496Z,0
2018-11-12T16:39:03.574Z,0
2018-11-12T16:40:18.909Z,0
2018-11-12T16:41:33.756Z,0
2018-11-12T16:42:47.943Z,0
2018-11-12T16:44:03.349Z,0
2018-11-12T16:45:17.742Z,0
2018-11-12T16:46:32.430Z,0
2018-11-12T16:47:47.384Z,0
2018-11-12T16:49:02.692Z,0
2018-11-12T16:50:17.673Z,0
2018-11-12T16:51:32.717Z,0
2018-11-12T16:52:47.397Z,0
2018-11-12T16:54:02.614Z,0
2018-11-12T16:55:17.563Z,0
2018-11-12T16:56:32.763Z,0
2018-11-12T16:57:47.408Z,0
2018-11-12T16:59:02.060Z,0
2018-11-12T17:00:17.381Z,0
2018-11-12T17:01:32.024Z,0
2018-11-12T17:02:47.191Z,0
2018-11-12T17:04:01.568Z,0
2018-11-12T17:05:16.319Z,0
2018-11-12T17:06:30.908Z,0
2018-11-12T17:07:46.232Z,0
2018-11-12T17:09:01.384Z,0
2018-11-12T17:10:16.121Z,0
2018-11-12T17:11:31.245Z,0
2018-11-12T17:12:45.300Z,0
2018-11-12T17:13:59.755Z,0
2018-11-12T17:15:14.664Z,0
2018-11-12T17:16:28.991Z,0
2018-11-12T17:17:44.235Z,0
2018-11-12T17:18:58.614Z,0
2018-11-12T17:20:13.009Z,0
2018-11-12T17:21:28.494Z,0
2018-11-12T17:22:42.909Z,0
2018-11-12T17:23:57.708Z,0
2018-11-12T17:25:12.930Z,0
2018-11-12T17:26:27.389Z,0
2018-11-12T17:27:42.543Z,0
2018-11-12T17:28:56.923Z,0
2018-11-12T17:30:25.897Z,0
2018-11-12T17:31:40.513Z,0
2018-11-12T17:32:54.892Z,0
2018-11-12T17:34:09.504Z,0
2018-11-12T17:35:24.485Z,0
2018-11-12T17:36:39.135Z,0
2018-11-12T17:37:54.182Z,0
2018-11-12T17:39:08.594Z,0
2018-11-12T17:40:23.593Z,0
2018-11-12T17:41:41.614Z,0
2018-11-12T17:42:56.228Z,0
2018-11-12T17:44:11.440Z,0
2018-11-12T17:45:26.677Z,0
2018-11-12T17:46:41.556Z,0
2018-11-12T17:47:56.160Z,0
2018-11-12T17:49:11.398Z,0
2018-11-12T17:50:26.314Z,0
2018-11-12T17:51:40.904Z,0
2018-11-12T17:52:55.243Z,0
2018-11-12T17:54:09.956Z,0
2018-11-12T17:55:24.825Z,0
2018-11-12T17:56:39.435Z,0
2018-11-12T17:57:54.375Z,0
2018-11-12T17:59:08.760Z,0
2018-11-12T18:00:23.874Z,0
2018-11-12T18:01:39.051Z,0
2018-11-12T18:02:53.819Z,0
2018-11-12T18:04:08.513Z,0
2018-11-12T18:05:22.731Z,0
2018-11-12T18:06:37.602Z,0
2018-11-12T18:07:54.069Z,0
2018-11-12T18:09:08.586Z,0
2018-11-12T18:10:22.498Z,0
2018-11-12T18:11:36.459Z,0
2018-11-12T18:12:51.487Z,0
2018-11-12T18:14:06.664Z,0